Time;durP1;ratioP1;P1;durP2;ratioP2;P2;SDS_P1;SDS_P2;PMS_P1;PMS_P2;Temp;Humidity;BMP_temperature;BMP_pressure;BME280_temperature;BME280_humidity;BME280_pressure;Samples;Min_cycle;Max_cycle;Signal;HPM_P1;HPM_P2
2022/06/05 00:01:37;;;;;;;20.80;12.70;;;;;;;10.41;100.00;102141.72;10297521;28;20062;-77
2022/06/05 00:06:52;;;;;;;21.63;12.17;;;;;;;10.34;100.00;102125.25;10272484;28;20041;-76
2022/06/05 00:11:58;;;;;;;21.58;11.90;;;;;;;10.36;100.00;102123.13;10242618;28;20043;-76
2022/06/05 00:16:58;;;;;;;20.48;11.88;;;;;;;10.32;100.00;102105.38;10243202;28;20038;-76
2022/06/05 00:21:59;;;;;;;24.25;12.80;;;;;;;10.32;100.00;102113.63;10296723;28;20226;-75
2022/06/05 00:27:00;;;;;;;20.40;11.43;;;;;;;10.30;100.00;102119.34;10282826;28;20093;-75
2022/06/05 00:32:27;;;;;;;18.55;11.20;;;;;;;10.28;100.00;102107.69;10309633;28;20457;-77
2022/06/05 00:37:39;;;;;;;;;;;;;;;10.29;100.00;102120.44;10315135;28;20423;-76
2022/06/05 00:42:40;;;;;;;20.63;11.57;;;;;;;10.26;100.00;102118.06;10297498;28;20424;-76
2022/06/05 00:47:40;;;;;;;20.00;12.07;;;;;;;10.11;100.00;102095.53;10299029;28;20436;-77
2022/06/05 00:52:44;;;;;;;18.10;11.75;;;;;;;10.24;100.00;102097.34;10248340;28;20039;-76
2022/06/05 00:57:45;;;;;;;20.02;10.57;;;;;;;10.24;100.00;102091.84;10294928;28;20038;-79
2022/06/05 01:02:47;;;;;;;21.02;11.95;;;;;;;10.17;100.00;102066.25;10262444;28;20038;-77
2022/06/05 01:07:48;;;;;;;19.83;11.57;;;;;;;10.15;100.00;102055.50;10283979;28;20093;-77
2022/06/05 01:13:26;;;;;;;22.77;12.40;;;;;;;10.21;100.00;102068.38;10279215;28;20065;-76
2022/06/05 01:18:40;;;;;;;19.95;12.23;;;;;;;10.16;100.00;102048.91;10287558;28;20044;-77
2022/06/05 01:23:59;;;;;;;27.30;12.45;;;;;;;10.21;100.00;102042.75;10280372;28;20049;-76
2022/06/05 01:29:09;;;;;;;24.42;12.38;;;;;;;10.14;100.00;102026.28;10297528;28;20053;-77
2022/06/05 01:34:09;;;;;;;25.70;13.82;;;;;;;10.18;100.00;102038.53;10256119;28;20062;-76
2022/06/05 01:39:11;;;;;;;22.00;12.32;;;;;;;10.19;100.00;102026.47;10295205;28;20047;-77
2022/06/05 01:44:19;;;;;;;23.92;12.95;;;;;;;10.17;100.00;102025.84;10242691;28;20066;-76
2022/06/05 01:49:26;;;;;;;28.15;13.88;;;;;;;10.02;100.00;102000.56;10272781;28;20035;-77
2022/06/05 01:54:43;;;;;;;23.20;12.77;;;;;;;10.27;100.00;102025.34;10278727;28;20055;-76
2022/06/05 02:00:13;;;;;;;23.23;13.35;;;;;;;10.29;100.00;102028.69;10298129;28;20039;-77
2022/06/05 02:05:17;;;;;;;30.38;14.63;;;;;;;10.21;100.00;102018.84;10280636;28;20091;-75
2022/06/05 02:10:49;;;;;;;21.50;14.23;;;;;;;10.30;100.00;102017.50;10276026;28;20047;-76
2022/06/05 02:15:50;;;;;;;22.75;14.10;;;;;;;10.32;100.00;102003.53;10291675;28;20045;-76
2022/06/05 02:20:50;;;;;;;24.13;14.73;;;;;;;10.36;100.00;102006.69;10263052;28;20072;-76
2022/06/05 02:25:51;;;;;;;30.42;16.67;;;;;;;10.38;100.00;102010.06;10261469;28;20054;-76
2022/06/05 02:31:27;;;;;;;30.45;15.57;;;;;;;10.40;100.00;101985.88;10294588;28;20039;-76
2022/06/05 02:36:36;;;;;;;28.77;14.40;;;;;;;10.41;100.00;101982.06;10267223;28;20043;-76
2022/06/05 02:41:40;;;;;;;28.23;14.82;;;;;;;10.42;100.00;101994.78;10236143;28;20044;-76
2022/06/05 02:46:50;;;;;;;26.75;14.18;;;;;;;10.43;100.00;101991.75;10268213;28;20085;-77
2022/06/05 02:51:52;;;;;;;24.35;14.05;;;;;;;10.40;100.00;101980.38;10276316;28;20043;-77
2022/06/05 02:56:55;;;;;;;27.70;14.25;;;;;;;10.33;100.00;101963.06;10277307;28;20113;-76
2022/06/05 03:07:14;;;;;;;26.73;14.25;;;;;;;10.41;100.00;101949.03;10291134;28;20102;-77
2022/06/05 03:12:15;;;;;;;31.25;15.88;;;;;;;10.44;100.00;101938.41;10292623;28;20387;-76
2022/06/05 03:17:15;;;;;;;25.25;15.32;;;;;;;10.44;100.00;101921.06;10292052;28;20035;-76
2022/06/05 03:22:16;;;;;;;28.40;15.43;;;;;;;10.47;100.00;101917.81;10276385;28;20090;-76
2022/06/05 03:27:16;;;;;;;28.88;14.85;;;;;;;10.50;100.00;101909.13;10274384;28;20070;-77
2022/06/05 03:32:17;;;;;;;30.48;15.43;;;;;;;10.43;100.00;101902.84;10290579;28;20058;-77
2022/06/05 03:37:17;;;;;;;26.42;14.90;;;;;;;10.46;100.00;101902.41;10293249;28;20070;-77
2022/06/05 03:42:18;;;;;;;25.30;14.13;;;;;;;10.59;100.00;101896.72;10271827;28;20058;-76
2022/06/05 03:47:18;;;;;;;26.23;14.60;;;;;;;10.67;100.00;101888.16;10229112;28;20181;-77
2022/06/05 03:52:19;;;;;;;26.55;14.05;;;;;;;10.45;100.00;101829.13;10295393;28;20047;-76
2022/06/05 03:57:20;;;;;;;28.55;14.35;;;;;;;10.68;100.00;101851.25;10283203;28;20035;-76
2022/06/05 04:02:21;;;;;;;25.38;14.15;;;;;;;10.92;100.00;101872.59;10282421;28;20050;-77
2022/06/05 04:07:21;;;;;;;28.33;14.95;;;;;;;11.00;100.00;101878.63;10282459;28;20129;-77
2022/06/05 04:12:22;;;;;;;29.02;14.90;;;;;;;11.05;100.00;101870.50;10299115;28;20039;-76
2022/06/05 04:17:22;;;;;;;23.40;13.90;;;;;;;11.16;100.00;101879.03;10278711;28;20063;-77
2022/06/05 04:22:23;;;;;;;27.80;14.15;;;;;;;11.30;100.00;101875.84;10258269;28;20051;-76
2022/06/05 04:27:23;;;;;;;25.42;16.48;;;;;;;11.40;100.00;101866.19;10262494;28;20039;-77
2022/06/05 04:32:24;;;;;;;28.35;14.68;;;;;;;11.54;100.00;101861.31;10293673;28;20053;-78
2022/06/05 04:37:25;;;;;;;23.48;14.23;;;;;;;11.67;100.00;101839.84;10307672;28;20103;-76
2022/06/05 04:42:26;;;;;;;27.70;14.05;;;;;;;11.82;100.00;101836.63;10279553;28;20122;-77
2022/06/05 04:47:26;;;;;;;24.60;13.60;;;;;;;11.98;100.00;101826.00;10300460;28;20058;-77
2022/06/05 04:52:27;;;;;;;24.80;12.77;;;;;;;12.13;100.00;101823.56;10279644;28;20042;-76
2022/06/05 04:57:28;;;;;;;21.52;12.73;;;;;;;12.26;100.00;101816.97;10281530;28;20062;-77
2022/06/05 05:02:28;;;;;;;19.10;13.35;;;;;;;12.40;100.00;101810.09;10260932;28;20035;-77
2022/06/05 05:07:29;;;;;;;20.77;12.70;;;;;;;12.54;100.00;101813.41;10236723;28;20090;-77
2022/06/05 05:12:29;;;;;;;22.33;13.73;;;;;;;12.65;100.00;101809.78;10261589;28;20050;-77
2022/06/05 05:17:30;;;;;;;20.85;12.75;;;;;;;12.82;100.00;101798.78;10278613;28;20059;-77
2022/06/05 05:22:37;;;;;;;21.73;13.30;;;;;;;13.02;100.00;101797.47;10297994;28;20045;-77
2022/06/05 05:27:39;;;;;;;20.13;13.15;;;;;;;13.22;100.00;101789.56;10297472;28;20522;-77
2022/06/05 05:32:39;;;;;;;20.75;13.40;;;;;;;13.42;100.00;101786.34;10295438;28;20106;-76
2022/06/05 05:37:40;;;;;;;23.63;13.98;;;;;;;13.78;100.00;101795.19;10263506;28;20066;-77
2022/06/05 05:42:40;;;;;;;16.27;12.88;;;;;;;14.06;100.00;101801.72;10297444;28;20395;-77
2022/06/05 05:47:41;;;;;;;19.55;11.18;;;;;;;14.35;100.00;101793.25;10295633;28;20035;-76
2022/06/05 05:52:44;;;;;;;16.65;11.85;;;;;;;14.58;100.00;101797.72;10295640;28;20046;-77
2022/06/05 05:57:48;;;;;;;13.98;10.45;;;;;;;14.77;100.00;101789.88;10330599;28;20129;-77
2022/06/05 06:02:48;;;;;;;16.08;11.68;;;;;;;15.03;100.00;101793.78;10334623;28;20455;-77
2022/06/05 06:07:49;;;;;;;18.08;11.50;;;;;;;14.88;100.00;101742.63;10311162;28;20457;-76
2022/06/05 06:12:49;;;;;;;18.45;10.95;;;;;;;15.44;100.00;101795.00;10294149;28;20039;-77
2022/06/05 06:17:50;;;;;;;15.57;11.52;;;;;;;15.62;100.00;101796.50;10296412;28;20058;-77
2022/06/05 06:22:50;;;;;;;15.65;11.05;;;;;;;15.69;100.00;101776.88;10293154;28;20039;-77
2022/06/05 06:27:51;;;;;;;19.50;11.90;;;;;;;15.91;100.00;101788.69;10295779;28;20066;-77
2022/06/05 06:32:51;;;;;;;18.42;10.63;;;;;;;15.93;100.00;101780.09;10293562;28;20105;-77
2022/06/05 06:37:51;;;;;;;16.08;11.50;;;;;;;16.00;100.00;101783.47;10295931;28;20035;-77
2022/06/05 06:42:54;;;;;;;15.15;10.27;;;;;;;16.15;100.00;101782.72;10296002;28;20094;-75
2022/06/05 06:47:55;;;;;;;14.23;10.13;;;;;;;16.40;100.00;101770.06;10278296;28;20043;-77
2022/06/05 06:52:55;;;;;;;21.70;10.38;;;;;;;16.63;100.00;101764.00;10293195;28;20043;-76
2022/06/05 06:57:56;;;;;;;12.82;9.73;;;;;;;17.00;100.00;101774.16;10295741;28;20047;-77
2022/06/05 07:02:56;;;;;;;16.02;10.27;;;;;;;17.33;100.00;101758.03;10286465;28;20031;-77
2022/06/05 07:07:56;;;;;;;11.65;8.90;;;;;;;17.70;100.00;101754.13;10254005;28;20566;-77
2022/06/05 07:12:57;;;;;;;11.85;8.15;;;;;;;17.87;100.00;101729.59;10256777;28;20035;-77
2022/06/05 07:17:57;;;;;;;9.10;7.97;;;;;;;18.18;100.00;101745.38;10261625;28;20039;-78
2022/06/05 07:22:58;;;;;;;10.40;7.93;;;;;;;18.40;100.00;101742.19;10286535;28;20039;-79
2022/06/05 07:27:58;;;;;;;9.30;8.02;;;;;;;18.87;100.00;101740.84;10283910;28;20094;-77
2022/06/05 07:32:59;;;;;;;12.80;9.20;;;;;;;19.20;100.00;101727.22;10297038;28;20043;-78
2022/06/05 07:37:59;;;;;;;9.02;6.95;;;;;;;19.21;100.00;101712.97;10291187;28;20062;-77
2022/06/05 07:43:00;;;;;;;11.75;7.82;;;;;;;18.69;100.00;101600.91;10281515;28;20039;-76
2022/06/05 07:48:00;;;;;;;9.82;7.45;;;;;;;19.44;100.00;101697.41;10279756;28;20047;-77
2022/06/05 07:58:20;;;;;;;10.43;6.47;;;;;;;20.06;100.00;101699.53;10280617;28;20095;-86
2022/06/05 08:03:20;;;;;;;10.65;7.50;;;;;;;20.18;100.00;101699.13;10285532;28;20039;-86
2022/06/05 08:08:21;;;;;;;8.98;7.13;;;;;;;20.34;100.00;101689.41;10291844;28;20032;-86
2022/06/05 08:13:21;;;;;;;10.20;6.35;;;;;;;20.39;100.00;101680.94;10265824;28;20333;-85
2022/06/05 08:18:22;;;;;;;7.13;5.40;;;;;;;20.39;100.00;101658.56;10279605;28;20044;-86
2022/06/05 08:23:23;;;;;;;9.65;6.30;;;;;;;20.83;100.00;101662.13;10280533;28;20039;-87
2022/06/05 08:28:25;;;;;;;6.43;5.57;;;;;;;21.00;100.00;101656.81;10279648;28;20039;-86
2022/06/05 08:33:25;;;;;;;8.02;6.70;;;;;;;21.15;100.00;101636.09;10278070;28;20054;-86
2022/06/05 08:44:12;;;;;;;10.52;6.05;;;;;;;21.46;100.00;101625.19;10298843;28;20357;-87
2022/06/05 08:49:18;;;;;;;8.50;5.80;;;;;;;21.46;100.00;101597.16;10294653;28;20046;-87
2022/06/05 08:54:38;;;;;;;7.28;6.20;;;;;;;21.85;100.00;101604.22;10297518;28;20058;-87
2022/06/05 08:59:53;;;;;;;7.35;5.50;;;;;;;21.68;98.55;101536.75;10266770;28;20070;-85
2022/06/05 09:05:06;;;;;;;7.00;5.30;;;;;;;22.19;99.86;101574.84;10276195;28;20051;-77
2022/06/05 09:10:13;;;;;;;8.20;6.25;;;;;;;22.36;97.32;101571.38;10266363;28;20042;-78
2022/06/05 09:15:19;;;;;;;7.45;6.50;;;;;;;22.50;94.18;101551.69;10268770;28;20065;-77
2022/06/05 09:20:19;;;;;;;7.53;5.82;;;;;;;22.43;94.69;101562.53;10293652;28;20042;-77
2022/06/05 09:25:40;;;;;;;6.57;5.30;;;;;;;22.36;92.89;101518.91;10280065;28;20031;-77
2022/06/05 09:31:06;;;;;;;9.30;5.22;;;;;;;22.80;95.56;101543.63;10296945;28;20102;-77
2022/06/05 09:36:17;;;;;;;9.93;5.60;;;;;;;22.84;91.32;101486.53;10293487;28;20050;-78
2022/06/05 09:41:50;;;;;;;7.45;6.18;;;;;;;23.30;89.70;101526.56;10254207;28;20345;-78
2022/06/05 09:47:05;;;;;;;7.50;5.68;;;;;;;23.23;89.74;101518.59;10297241;28;20524;-78
2022/06/05 09:52:16;;;;;;;7.85;5.75;;;;;;;23.75;91.20;101512.28;10296142;28;20038;-78
2022/06/05 10:03:14;;;;;;;7.53;6.00;;;;;;;23.76;86.65;101495.13;10296384;28;20046;-78
2022/06/05 10:08:19;;;;;;;6.20;5.35;;;;;;;24.02;87.97;101501.91;10265306;28;20037;-78
2022/06/05 10:13:39;;;;;;;6.97;5.68;;;;;;;24.09;86.08;101493.81;10281192;28;20097;-78
2022/06/05 10:18:52;;;;;;;7.18;5.55;;;;;;;24.34;83.79;101483.69;10293951;28;20042;-78
2022/06/05 10:24:26;;;;;;;5.65;5.15;;;;;;;24.44;85.93;101468.47;10276006;28;20057;-77
2022/06/05 10:29:47;;;;;;;7.35;4.88;;;;;;;24.82;84.40;101490.22;10265018;28;20550;-77
2022/06/05 10:35:02;;;;;;;7.93;5.70;;;;;;;24.89;82.56;101485.75;10277065;28;20042;-78
2022/06/05 10:40:46;;;;;;;6.03;3.90;;;;;;;25.51;82.57;101467.38;10292978;28;20047;-78
2022/06/05 10:45:54;;;;;;;5.65;4.20;;;;;;;25.69;80.46;101453.97;10293286;28;20054;-78
2022/06/05 10:51:27;;;;;;;5.22;4.18;;;;;;;25.60;80.30;101449.56;10252990;28;20509;-78
2022/06/05 10:56:52;;;;;;;4.85;4.00;;;;;;;25.68;81.76;101457.97;10255843;28;20050;-78
2022/06/05 11:02:02;;;;;;;5.00;3.95;;;;;;;25.99;80.00;101439.00;10253639;28;20035;-79
2022/06/05 11:07:23;;;;;;;6.07;4.13;;;;;;;25.65;78.17;101415.53;10260017;28;20057;-78
2022/06/05 11:18:17;;;;;;;5.20;3.78;;;;;;;25.76;75.88;101417.59;10295160;28;20039;-78
2022/06/05 11:23:19;;;;;;;5.63;4.25;;;;;;;25.45;76.49;101409.56;10292467;28;20098;-78
2022/06/05 11:28:39;;;;;;;9.18;5.18;;;;;;;24.92;75.26;101385.66;10275813;28;20046;-80
2022/06/05 11:33:57;;;;;;;4.78;4.20;;;;;;;25.11;76.34;101397.28;10277732;28;20042;-80
2022/06/05 11:39:48;;;;;;;12.95;4.53;;;;;;;25.38;74.86;101381.06;10293835;28;20058;-80
2022/06/05 11:45:00;;;;;;;38.85;6.53;;;;;;;25.43;76.56;101369.59;10192345;29;20047;-79
2022/06/05 11:50:12;;;;;;;4.47;3.90;;;;;;;25.53;75.86;101366.38;10265218;28;20046;-80
2022/06/05 11:55:12;;;;;;;6.15;3.60;;;;;;;25.62;75.44;101362.66;10259502;28;20087;-80
2022/06/05 12:00:19;;;;;;;6.40;4.75;;;;;;;25.41;75.43;101334.47;10295540;28;20112;-80
2022/06/05 12:05:38;;;;;;;6.57;4.15;;;;;;;25.06;77.25;101352.44;10300090;28;20034;-80
2022/06/05 12:10:58;;;;;;;7.72;4.72;;;;;;;24.90;79.66;101365.44;10282328;28;20046;-80
2022/06/05 12:16:02;;;;;;;4.72;4.15;;;;;;;24.74;79.50;101365.19;10279225;28;20341;-81
2022/06/05 12:21:33;;;;;;;7.00;4.15;;;;;;;24.87;79.26;101364.16;10280125;28;20101;-80
2022/06/05 12:26:45;;;;;;;5.32;4.03;;;;;;;24.77;77.56;101342.81;10257595;28;20046;-81
2022/06/05 12:32:01;;;;;;;7.63;4.82;;;;;;;24.74;78.21;101334.22;10275974;28;20073;-80
2022/06/05 12:37:18;;;;;;;5.75;4.97;;;;;;;24.67;77.03;101331.94;10264328;28;20039;-80
2022/06/05 12:42:37;;;;;;;5.47;3.85;;;;;;;24.48;76.51;101328.72;10270405;28;20043;-79
2022/06/05 12:47:47;;;;;;;6.10;4.22;;;;;;;24.19;78.02;101333.13;10288552;28;20043;-80
2022/06/05 12:52:49;;;;;;;8.35;4.20;;;;;;;24.28;78.20;101322.66;10288933;28;20039;-80
2022/06/05 12:58:08;;;;;;;4.05;3.72;;;;;;;24.42;78.58;101319.63;10268930;28;20038;-80
2022/06/05 13:03:17;;;;;;;8.30;4.10;;;;;;;24.29;77.40;101299.00;10292152;28;20043;-80
2022/06/05 13:08:43;;;;;;;4.07;3.67;;;;;;;24.51;79.12;101294.28;10288548;28;20046;-80
2022/06/05 13:14:02;;;;;;;6.32;3.83;;;;;;;24.48;77.09;101289.31;10274946;28;20058;-81
2022/06/05 13:19:13;;;;;;;5.35;3.78;;;;;;;24.35;77.90;101272.31;10290673;28;20546;-81
2022/06/05 13:24:35;;;;;;;4.57;3.83;;;;;;;24.49;78.49;101271.25;10256506;28;20047;-80
2022/06/05 13:29:39;;;;;;;4.97;4.13;;;;;;;24.68;79.18;101270.84;10284797;28;20039;-81
2022/06/05 13:34:51;;;;;;;6.32;3.47;;;;;;;24.75;78.35;101263.50;10280936;28;20055;-80
2022/06/05 13:40:05;;;;;;;7.20;4.35;;;;;;;24.99;78.79;101253.53;10263864;28;20044;-81
2022/06/05 13:45:27;;;;;;;5.70;3.67;;;;;;;24.87;76.48;101245.06;10260075;28;20047;-81
2022/06/05 13:50:52;;;;;;;4.80;3.65;;;;;;;24.74;78.41;101239.34;10295139;28;20042;-81
2022/06/05 13:56:22;;;;;;;5.03;3.72;;;;;;;24.59;79.46;101239.94;10254827;28;20131;-81
2022/06/05 14:01:40;;;;;;;6.90;3.65;;;;;;;24.34;78.65;101225.63;10265294;28;20031;-81
2022/06/05 14:06:55;;;;;;;5.07;4.03;;;;;;;24.15;79.31;101228.06;10295053;28;20038;-80
2022/06/05 14:11:55;;;;;;;4.05;3.58;;;;;;;24.03;79.40;101222.34;10293797;28;20035;-79
2022/06/05 14:16:56;;;;;;;5.97;4.43;;;;;;;24.01;81.00;101217.03;10285900;28;20401;-81
2022/06/05 14:22:05;;;;;;;5.00;4.00;;;;;;;23.91;80.63;101214.59;10241225;28;20039;-80
2022/06/05 14:27:06;;;;;;;4.53;3.65;;;;;;;23.67;81.15;101172.97;10267679;28;20038;-81
2022/06/05 14:32:08;;;;;;;4.65;3.90;;;;;;;23.81;80.27;101207.34;10224749;28;20089;-81
2022/06/05 14:37:25;;;;;;;4.80;3.67;;;;;;;23.73;80.27;101194.13;10259988;28;20038;-82
2022/06/05 14:42:26;;;;;;;;;;;;;;;23.44;80.76;101201.34;10274260;28;20038;-80
2022/06/05 14:48:08;;;;;;;4.47;3.70;;;;;;;23.06;81.21;101210.44;10256418;28;19953;-80
2022/06/05 14:53:21;;;;;;;4.95;3.83;;;;;;;22.80;82.00;101209.59;10253389;28;20046;-81
2022/06/05 14:58:29;;;;;;;6.28;4.20;;;;;;;22.59;82.38;101196.19;10253064;28;20443;-81
2022/06/05 15:03:56;;;;;;;5.70;3.58;;;;;;;22.59;84.00;101203.78;10282990;28;20066;-81
2022/06/05 15:09:03;;;;;;;7.85;4.22;;;;;;;22.65;85.73;101210.91;10276577;28;20050;-82
2022/06/05 15:14:22;;;;;;;8.30;3.70;;;;;;;22.79;88.62;101210.75;10276550;28;20071;-82
2022/06/05 15:19:25;;;;;;;6.65;4.78;;;;;;;22.77;89.81;101202.66;10287177;28;20122;-81
2022/06/05 15:24:38;;;;;;;5.95;3.90;;;;;;;22.66;93.80;101207.78;10257824;28;20057;-82
2022/06/05 15:30:00;;;;;;;8.32;4.00;;;;;;;22.47;99.03;101207.22;10285298;28;20049;-82
2022/06/05 15:35:18;;;;;;;9.40;4.57;;;;;;;22.26;100.00;101204.22;10293138;28;20116;-81
2022/06/05 15:40:23;;;;;;;8.02;4.78;;;;;;;21.92;100.00;101202.94;10257160;28;20055;-82
2022/06/05 15:45:34;;;;;;;5.45;4.82;;;;;;;21.82;100.00;101204.03;10242086;28;20070;-81
2022/06/05 15:51:04;;;;;;;6.43;4.72;;;;;;;21.42;100.00;101170.38;10253886;28;20532;-81
2022/06/05 15:56:26;;;;;;;8.55;5.07;;;;;;;21.16;100.00;101128.19;10265611;28;20046;-82
2022/06/05 16:01:35;;;;;;;6.40;5.63;;;;;;;21.47;100.00;101183.41;10275835;28;20146;-81
2022/06/05 16:06:58;;;;;;;7.10;5.35;;;;;;;21.47;100.00;101181.44;10254714;28;20043;-82
2022/06/05 16:12:12;;;;;;;7.70;4.93;;;;;;;21.38;100.00;101157.31;10247119;28;22506;-80
2022/06/05 16:17:40;;;;;;;6.80;5.47;;;;;;;21.44;100.00;101178.47;10284492;28;20136;-81
2022/06/05 16:23:21;;;;;;;5.95;5.38;;;;;;;21.30;100.00;101190.53;10309964;28;20050;-80
2022/06/05 16:28:43;;;;;;;8.63;5.95;;;;;;;21.21;100.00;101192.47;10281510;28;20042;-80
2022/06/05 16:33:45;;;;;;;8.68;7.85;;;;;;;20.87;100.00;101205.00;10264971;28;20062;-80
2022/06/05 16:38:56;;;;;;;10.30;9.10;;;;;;;20.42;100.00;101204.06;10285085;28;20042;-80
2022/06/05 16:43:58;;;;;;;11.25;10.20;;;;;;;20.06;100.00;101205.66;10260816;28;20035;-80
2022/06/05 16:49:02;;;;;;;11.65;10.23;;;;;;;19.88;100.00;101206.56;10263857;28;20066;-79
2022/06/05 16:54:05;;;;;;;12.35;11.15;;;;;;;19.72;100.00;101214.41;10254586;28;20075;-79
2022/06/05 16:59:24;;;;;;;13.63;12.23;;;;;;;19.56;100.00;101214.66;10266887;28;20043;-79
2022/06/05 17:04:24;;;;;;;13.18;11.90;;;;;;;19.51;100.00;101211.97;10243021;28;20051;-81
2022/06/05 17:09:29;;;;;;;13.57;12.27;;;;;;;19.38;100.00;101193.22;10253083;28;20055;-81
2022/06/05 17:14:33;;;;;;;12.85;11.65;;;;;;;19.31;100.00;101188.03;10289616;28;20039;-82
2022/06/05 17:19:56;;;;;;;13.82;12.52;;;;;;;19.02;100.00;101151.16;10294534;28;20046;-81
2022/06/05 17:25:14;;;;;;;12.60;11.40;;;;;;;19.03;100.00;101187.09;10280657;28;20116;-81
2022/06/05 17:30:20;;;;;;;13.65;11.98;;;;;;;18.83;100.00;101176.25;10278010;28;20053;-81
2022/06/05 17:35:46;;;;;;;13.73;12.32;;;;;;;18.70;100.00;101175.84;10280298;28;20098;-81
2022/06/05 17:41:16;;;;;;;13.02;11.77;;;;;;;18.39;100.00;101149.56;10296160;28;20123;-81
2022/06/05 17:46:25;;;;;;;17.02;14.07;;;;;;;18.40;100.00;101156.78;10254133;28;20102;-81
2022/06/05 17:51:29;;;;;;;16.25;14.52;;;;;;;18.32;100.00;101152.72;10276839;28;20047;-81
2022/06/05 17:56:36;;;;;;;16.38;14.73;;;;;;;18.02;100.00;101117.72;10280974;28;20113;-80
2022/06/05 18:01:44;;;;;;;18.95;17.05;;;;;;;18.13;100.00;101136.81;10241700;28;20138;-80
2022/06/05 18:06:45;;;;;;;19.35;17.30;;;;;;;17.88;100.00;101124.03;10252529;28;20066;-80
2022/06/05 18:11:48;;;;;;;19.33;17.42;;;;;;;17.90;100.00;101127.34;10246816;28;20046;-80
2022/06/05 18:16:48;;;;;;;17.85;15.23;;;;;;;17.83;100.00;101118.50;10257639;28;20054;-79
2022/06/05 18:21:52;;;;;;;17.73;15.82;;;;;;;17.77;100.00;101121.63;10277148;28;20035;-80
2022/06/05 18:27:22;;;;;;;16.02;14.27;;;;;;;17.64;100.00;101117.63;10262915;28;20038;-79
2022/06/05 18:32:37;;;;;;;17.20;14.88;;;;;;;17.49;100.00;101101.91;10271842;28;20039;-80
2022/06/05 18:42:58;;;;;;;18.05;16.15;;;;;;;17.43;100.00;101100.31;10273097;28;20042;-79
2022/06/05 18:47:59;;;;;;;16.65;15.02;;;;;;;17.38;100.00;101103.97;10263347;28;20043;-81
2022/06/05 18:53:01;;;;;;;15.93;14.32;;;;;;;17.27;100.00;101081.00;10273087;28;20082;-80
2022/06/05 18:58:20;;;;;;;17.50;14.35;;;;;;;17.30;100.00;101088.75;10273089;28;20430;-79
2022/06/05 19:03:36;;;;;;;13.85;12.40;;;;;;;17.22;100.00;101094.97;10288369;28;20042;-80
2022/06/05 19:08:38;;;;;;;14.80;12.63;;;;;;;17.09;100.00;101096.47;10286796;28;20035;-79
2022/06/05 19:13:51;;;;;;;13.38;11.77;;;;;;;16.99;100.00;101085.47;10278402;28;20110;-79
2022/06/05 19:18:57;;;;;;;14.27;11.27;;;;;;;16.92;100.00;101073.81;10297980;28;20110;-79
2022/06/05 19:24:19;;;;;;;14.77;10.00;;;;;;;16.37;100.00;101007.28;10292414;28;20047;-80
2022/06/05 19:29:34;;;;;;;13.88;10.05;;;;;;;16.24;100.00;100991.25;10259876;28;20050;-78
2022/06/05 19:34:37;;;;;;;10.40;8.95;;;;;;;16.40;100.00;101022.53;10284589;28;20038;-79
2022/06/05 19:39:41;;;;;;;9.98;8.63;;;;;;;16.26;100.00;101014.03;10284280;28;20051;-79
2022/06/05 19:44:41;;;;;;;12.57;8.52;;;;;;;16.21;100.00;101008.53;10282868;28;20119;-79
2022/06/05 19:49:43;;;;;;;9.82;7.50;;;;;;;16.16;100.00;100991.88;10242626;28;20046;-79
2022/06/05 19:54:44;;;;;;;10.20;8.90;;;;;;;16.23;100.00;101001.56;10277435;28;20062;-79
2022/06/05 20:00:00;;;;;;;11.65;8.65;;;;;;;16.19;100.00;100986.59;10288785;28;20059;-79
2022/06/05 20:05:01;;;;;;;11.43;8.20;;;;;;;16.09;100.00;100967.22;10299272;28;20073;-79
2022/06/05 20:10:29;;;;;;;10.38;8.18;;;;;;;16.17;100.00;100983.25;10284831;28;20047;-80
2022/06/05 20:15:35;;;;;;;21.35;7.22;;;;;;;16.01;100.00;100956.72;10263332;28;20039;-80
2022/06/05 20:20:45;;;;;;;9.40;7.90;;;;;;;16.10;100.00;100974.41;10260352;28;20043;-80
2022/06/05 20:25:56;;;;;;;8.75;7.18;;;;;;;16.09;100.00;100972.78;10272825;28;20035;-80
2022/06/05 20:31:08;;;;;;;9.65;8.07;;;;;;;16.09;100.00;100979.16;10270512;28;20039;-79
2022/06/05 20:36:19;;;;;;;8.82;7.15;;;;;;;16.00;100.00;100961.47;10282188;28;20043;-79
2022/06/05 20:41:34;;;;;;;12.10;8.85;;;;;;;15.85;100.00;100940.16;10265855;28;20039;-79
2022/06/05 20:46:37;;;;;;;9.60;7.68;;;;;;;15.74;100.00;100944.94;10282363;28;20107;-78
2022/06/05 20:51:37;;;;;;;10.80;8.13;;;;;;;15.63;100.00;100925.88;10268799;28;20042;-79
2022/06/05 20:56:44;;;;;;;15.00;9.60;;;;;;;15.52;100.00;100931.47;10253684;28;20039;-79
2022/06/05 21:01:48;;;;;;;13.27;8.98;;;;;;;15.47;100.00;100914.84;10267285;28;20035;-79
2022/06/05 21:17:35;;;;;;;11.85;8.13;;;;;;;15.37;100.00;100889.09;10249857;28;20410;-79
2022/06/05 21:22:37;;;;;;;12.57;8.52;;;;;;;15.40;100.00;100892.16;10288393;28;20046;-78
2022/06/05 21:27:46;;;;;;;12.27;8.23;;;;;;;15.42;100.00;100892.69;10255020;28;20051;-78
2022/06/05 21:32:48;;;;;;;18.58;10.57;;;;;;;15.43;100.00;100883.25;10256661;28;20143;-78
2022/06/05 21:38:07;;;;;;;12.85;9.48;;;;;;;15.42;100.00;100869.66;10246672;28;20065;-77
2022/06/05 21:43:10;;;;;;;15.40;9.65;;;;;;;15.42;100.00;100870.50;10291153;28;20044;-78
2022/06/05 21:48:11;;;;;;;13.75;9.32;;;;;;;15.45;100.00;100866.31;10243140;28;20045;-78
2022/06/05 21:53:11;;;;;;;14.55;10.10;;;;;;;15.47;100.00;100858.53;10250290;28;20062;-78
2022/06/05 21:58:13;;;;;;;15.60;9.98;;;;;;;15.51;100.00;100856.84;10237052;28;20047;-77
2022/06/05 22:03:24;;;;;;;12.57;10.88;;;;;;;15.43;100.00;100852.72;10266820;28;20038;-78
2022/06/05 22:08:27;;;;;;;16.70;11.23;;;;;;;15.44;100.00;100857.16;10276601;28;20034;-77
2022/06/05 22:13:27;;;;;;;14.82;11.48;;;;;;;15.42;100.00;100839.13;10269017;28;20049;-78
2022/06/05 22:18:30;;;;;;;14.60;10.85;;;;;;;15.35;100.00;100836.69;10259758;28;20048;-79
2022/06/05 22:23:30;;;;;;;16.25;11.35;;;;;;;15.47;100.00;100847.44;10281193;28;20349;-77
2022/06/05 22:28:31;;;;;;;19.17;12.68;;;;;;;15.48;100.00;100844.38;10274276;28;20118;-78
2022/06/05 22:33:32;;;;;;;21.48;13.15;;;;;;;15.40;100.00;100811.69;10240305;28;20150;-77
2022/06/05 22:38:33;;;;;;;22.30;12.85;;;;;;;15.48;100.00;100813.00;10223031;28;20034;-78
2022/06/05 22:43:33;;;;;;;20.27;12.98;;;;;;;15.40;100.00;100794.19;10231154;28;20059;-78
2022/06/05 22:48:35;;;;;;;18.58;13.48;;;;;;;15.51;100.00;100813.25;10274101;28;20059;-78
2022/06/05 22:53:36;;;;;;;20.30;14.30;;;;;;;15.54;100.00;100812.72;10291559;28;20089;-78
2022/06/05 22:58:38;;;;;;;21.92;15.57;;;;;;;15.57;100.00;100818.78;10256139;28;21165;-77
2022/06/05 23:03:38;;;;;;;26.05;16.33;;;;;;;15.56;100.00;100804.06;10276572;28;20042;-77
2022/06/05 23:08:39;;;;;;;25.50;17.17;;;;;;;15.63;100.00;100800.97;10271555;28;20038;-77
2022/06/05 23:13:41;;;;;;;21.33;16.38;;;;;;;15.62;100.00;100791.81;10260480;28;20065;-79
2022/06/05 23:24:02;;;;;;;26.73;18.55;;;;;;;15.62;100.00;100777.94;10243246;28;20057;-79
2022/06/05 23:29:03;;;;;;;24.85;19.20;;;;;;;15.64;100.00;100777.66;10229701;28;20102;-78
2022/06/05 23:34:05;;;;;;;27.00;20.23;;;;;;;15.53;100.00;100746.41;10272212;28;20118;-78
2022/06/05 23:39:06;;;;;;;24.05;19.88;;;;;;;15.69;100.00;100763.75;10277778;28;20125;-78
2022/06/05 23:44:06;;;;;;;30.23;22.27;;;;;;;15.73;100.00;100753.75;10263872;28;20038;-78
2022/06/05 23:49:09;;;;;;;24.73;20.67;;;;;;;15.66;100.00;100731.00;10287391;28;20050;-79
2022/06/05 23:54:10;;;;;;;26.33;21.13;;;;;;;15.80;100.00;100747.84;10282888;28;20050;-80